sensor_id;sensor_type;location;lat;lon;timestamp;pressure;altitude;pressure_sealevel;temperature
77331;BMP280;66405;48.328;7.820;2023-02-28T00:00:43;100533.75;;;1.94
77331;BMP280;66405;48.328;7.820;2023-02-28T00:03:09;100535.66;;;1.94
77331;BMP280;66405;48.328;7.820;2023-02-28T00:05:35;100526.13;;;1.93
77331;BMP280;66405;48.328;7.820;2023-02-28T00:08:00;100532.97;;;1.90
77331;BMP280;66405;48.328;7.820;2023-02-28T00:10:28;100536.38;;;1.87
77331;BMP280;66405;48.328;7.820;2023-02-28T00:12:56;100530.22;;;1.83
77331;BMP280;66405;48.328;7.820;2023-02-28T00:15:23;100530.94;;;1.80
77331;BMP280;66405;48.328;7.820;2023-02-28T00:17:49;100531.28;;;1.78
77331;BMP280;66405;48.328;7.820;2023-02-28T00:20:14;100530.13;;;1.76
77331;BMP280;66405;48.328;7.820;2023-02-28T00:22:46;100535.47;;;1.76
77331;BMP280;66405;48.328;7.820;2023-02-28T00:25:13;100525.53;;;1.72
77331;BMP280;66405;48.328;7.820;2023-02-28T00:27:40;100526.25;;;1.69
77331;BMP280;66405;48.328;7.820;2023-02-28T00:30:09;100524.28;;;1.66
77331;BMP280;66405;48.328;7.820;2023-02-28T00:32:36;100518.94;;;1.63
77331;BMP280;66405;48.328;7.820;2023-02-28T00:35:02;100512.00;;;1.58
77331;BMP280;66405;48.328;7.820;2023-02-28T00:37:28;100508.53;;;1.54
77331;BMP280;66405;48.328;7.820;2023-02-28T00:39:55;100518.41;;;1.53
77331;BMP280;66405;48.328;7.820;2023-02-28T00:42:21;100514.94;;;1.49
77331;BMP280;66405;48.328;7.820;2023-02-28T00:44:46;100515.31;;;1.48
77331;BMP280;66405;48.328;7.820;2023-02-28T00:47:12;100513.00;;;1.46
77331;BMP280;66405;48.328;7.820;2023-02-28T00:49:37;100521.72;;;1.43
77331;BMP280;66405;48.328;7.820;2023-02-28T00:52:03;100521.66;;;1.39
77331;BMP280;66405;48.328;7.820;2023-02-28T00:54:29;100516.31;;;1.36
77331;BMP280;66405;48.328;7.820;2023-02-28T00:56:55;100529.22;;;1.37
77331;BMP280;66405;48.328;7.820;2023-02-28T00:59:20;100519.34;;;1.34
77331;BMP280;66405;48.328;7.820;2023-02-28T01:01:46;100526.19;;;1.35
77331;BMP280;66405;48.328;7.820;2023-02-28T01:04:12;100525.00;;;1.33
77331;BMP280;66405;48.328;7.820;2023-02-28T01:06:38;100537.91;;;1.31
77331;BMP280;66405;48.328;7.820;2023-02-28T01:09:04;100535.66;;;1.33
77331;BMP280;66405;48.328;7.820;2023-02-28T01:11:30;100530.34;;;1.33
77331;BMP280;66405;48.328;7.820;2023-02-28T01:13:56;100529.59;;;1.32
77331;BMP280;66405;48.328;7.820;2023-02-28T01:16:22;100533.78;;;1.33
77331;BMP280;66405;48.328;7.820;2023-02-28T01:18:48;100537.22;;;1.34
77331;BMP280;66405;48.328;7.820;2023-02-28T01:21:16;100524.69;;;1.34
77331;BMP280;66405;48.328;7.820;2023-02-28T01:23:43;100527.69;;;1.36
77331;BMP280;66405;48.328;7.820;2023-02-28T01:26:27;100525.44;;;1.38
77331;BMP280;66405;48.328;7.820;2023-02-28T01:28:53;100528.16;;;1.42
77331;BMP280;66405;48.328;7.820;2023-02-28T01:31:19;100525.53;;;1.46
77331;BMP280;66405;48.328;7.820;2023-02-28T01:33:45;100529.75;;;1.47
77331;BMP280;66405;48.328;7.820;2023-02-28T01:36:14;100516.78;;;1.45
77331;BMP280;66405;48.328;7.820;2023-02-28T01:38:39;100521.00;;;1.46
77331;BMP280;66405;48.328;7.820;2023-02-28T01:41:07;100521.41;;;1.48
77331;BMP280;66405;48.328;7.820;2023-02-28T01:46:40;100518.78;;;1.52
77331;BMP280;66405;48.328;7.820;2023-02-28T01:49:13;100521.84;;;1.54
77331;BMP280;66405;48.328;7.820;2023-02-28T01:54:09;100520.41;;;1.60
77331;BMP280;66405;48.328;7.820;2023-02-28T01:56:43;100516.63;;;1.61
77331;BMP280;66405;48.328;7.820;2023-02-28T01:59:12;100510.88;;;1.59
77331;BMP280;66405;48.328;7.820;2023-02-28T02:01:39;100518.56;;;1.64
77331;BMP280;66405;48.328;7.820;2023-02-28T02:04:04;100509.81;;;1.64
77331;BMP280;66405;48.328;7.820;2023-02-28T02:06:42;100509.06;;;1.63
77331;BMP280;66405;48.328;7.820;2023-02-28T02:09:10;100516.31;;;1.66
77331;BMP280;66405;48.328;7.820;2023-02-28T02:11:37;100506.38;;;1.63
77331;BMP280;66405;48.328;7.820;2023-02-28T02:17:25;100496.06;;;1.62
77331;BMP280;66405;48.328;7.820;2023-02-28T02:26:03;100501.00;;;1.60
77331;BMP280;66405;48.328;7.820;2023-02-28T02:39:13;100504.84;;;1.62
77331;BMP280;66405;48.328;7.820;2023-02-28T02:42:10;100491.53;;;1.62
77331;BMP280;66405;48.328;7.820;2023-02-28T02:44:46;100492.28;;;1.63
77331;BMP280;66405;48.328;7.820;2023-02-28T02:47:20;100497.25;;;1.64
77331;BMP280;66405;48.328;7.820;2023-02-28T02:49:50;100496.47;;;1.64
77331;BMP280;66405;48.328;7.820;2023-02-28T02:52:18;100500.69;;;1.65
77331;BMP280;66405;48.328;7.820;2023-02-28T02:54:48;100490.41;;;1.63
77331;BMP280;66405;48.328;7.820;2023-02-28T02:57:22;100491.53;;;1.62
77331;BMP280;66405;48.328;7.820;2023-02-28T02:59:50;100498.38;;;1.63
77331;BMP280;66405;48.328;7.820;2023-02-28T03:02:19;100485.81;;;1.64
77331;BMP280;66405;48.328;7.820;2023-02-28T03:04:51;100487.78;;;1.67
77331;BMP280;66405;48.328;7.820;2023-02-28T03:07:20;100480.13;;;1.65
77331;BMP280;66405;48.328;7.820;2023-02-28T03:09:54;100492.69;;;1.65
77331;BMP280;66405;48.328;7.820;2023-02-28T03:12:20;100488.13;;;1.65
77331;BMP280;66405;48.328;7.820;2023-02-28T03:15:19;100480.53;;;1.67
77331;BMP280;66405;48.328;7.820;2023-02-28T03:25:58;100475.25;;;1.71
77331;BMP280;66405;48.328;7.820;2023-02-28T03:35:58;100469.50;;;1.69
77331;BMP280;66405;48.328;7.820;2023-02-28T03:38:38;100477.16;;;1.70
77331;BMP280;66405;48.328;7.820;2023-02-28T03:41:18;100470.28;;;1.69
77331;BMP280;66405;48.328;7.820;2023-02-28T03:43:52;100480.16;;;1.69
77331;BMP280;66405;48.328;7.820;2023-02-28T03:46:22;100480.16;;;1.69
77331;BMP280;66405;48.328;7.820;2023-02-28T03:48:57;100475.63;;;1.69
77331;BMP280;66405;48.328;7.820;2023-02-28T03:51:26;100476.00;;;1.68
77331;BMP280;66405;48.328;7.820;2023-02-28T03:54:16;100482.84;;;1.69
77331;BMP280;66405;48.328;7.820;2023-02-28T03:56:55;100483.63;;;1.69
77331;BMP280;66405;48.328;7.820;2023-02-28T03:59:34;100484.75;;;1.68
77331;BMP280;66405;48.328;7.820;2023-02-28T04:02:01;100485.13;;;1.67
77331;BMP280;66405;48.328;7.820;2023-02-28T04:04:27;100480.13;;;1.65
77331;BMP280;66405;48.328;7.820;2023-02-28T04:06:53;100485.47;;;1.65
77331;BMP280;66405;48.328;7.820;2023-02-28T04:09:26;100482.78;;;1.65
77331;BMP280;66405;48.328;7.820;2023-02-28T04:11:52;100479.38;;;1.65
77331;BMP280;66405;48.328;7.820;2023-02-28T04:14:18;100481.25;;;1.64
77331;BMP280;66405;48.328;7.820;2023-02-28T04:16:44;100481.25;;;1.64
77331;BMP280;66405;48.328;7.820;2023-02-28T04:19:11;100484.69;;;1.65
77331;BMP280;66405;48.328;7.820;2023-02-28T04:21:40;100487.38;;;1.65
77331;BMP280;66405;48.328;7.820;2023-02-28T04:24:08;100484.28;;;1.63
77331;BMP280;66405;48.328;7.820;2023-02-28T04:26:36;100485.78;;;1.60
77331;BMP280;66405;48.328;7.820;2023-02-28T04:29:04;100483.84;;;1.57
77331;BMP280;66405;48.328;7.820;2023-02-28T04:31:29;100478.88;;;1.55
77331;BMP280;66405;48.328;7.820;2023-02-28T04:33:55;100486.47;;;1.53
77331;BMP280;66405;48.328;7.820;2023-02-28T04:36:21;100486.47;;;1.53
77331;BMP280;66405;48.328;7.820;2023-02-28T04:38:48;100484.16;;;1.52
77331;BMP280;66405;48.328;7.820;2023-02-28T04:41:13;100484.16;;;1.52
77331;BMP280;66405;48.328;7.820;2023-02-28T04:43:39;100484.16;;;1.52
77331;BMP280;66405;48.328;7.820;2023-02-28T04:46:05;100480.38;;;1.53
77331;BMP280;66405;48.328;7.820;2023-02-28T04:48:34;100477.72;;;1.53
77331;BMP280;66405;48.328;7.820;2023-02-28T04:51:08;100474.66;;;1.54
77331;BMP280;66405;48.328;7.820;2023-02-28T04:53:35;100482.28;;;1.56
77331;BMP280;66405;48.328;7.820;2023-02-28T04:56:00;100492.94;;;1.56
77331;BMP280;66405;48.328;7.820;2023-02-28T04:58:26;100486.88;;;1.55
77331;BMP280;66405;48.328;7.820;2023-02-28T05:00:52;100493.72;;;1.56
77331;BMP280;66405;48.328;7.820;2023-02-28T05:03:19;100489.16;;;1.57
77331;BMP280;66405;48.328;7.820;2023-02-28T05:05:46;100496.41;;;1.56
77331;BMP280;66405;48.328;7.820;2023-02-28T05:08:12;100489.53;;;1.55
77331;BMP280;66405;48.328;7.820;2023-02-28T05:10:37;100495.56;;;1.52
77331;BMP280;66405;48.328;7.820;2023-02-28T05:13:03;100494.41;;;1.50
77331;BMP280;66405;48.328;7.820;2023-02-28T05:15:28;100496.66;;;1.48
77331;BMP280;66405;48.328;7.820;2023-02-28T05:17:54;100496.59;;;1.44
77331;BMP280;66405;48.328;7.820;2023-02-28T05:20:19;100500.41;;;1.43
77331;BMP280;66405;48.328;7.820;2023-02-28T05:22:46;100495.03;;;1.39
77331;BMP280;66405;48.328;7.820;2023-02-28T05:25:16;100499.19;;;1.37
77331;BMP280;66405;48.328;7.820;2023-02-28T05:27:42;100494.59;;;1.34
77331;BMP280;66405;48.328;7.820;2023-02-28T05:30:08;100502.59;;;1.34
77331;BMP280;66405;48.328;7.820;2023-02-28T05:32:39;100504.09;;;1.31
77331;BMP280;66405;48.328;7.820;2023-02-28T05:35:09;100504.78;;;1.28
77331;BMP280;66405;48.328;7.820;2023-02-28T05:37:36;100500.19;;;1.25
77331;BMP280;66405;48.328;7.820;2023-02-28T05:40:05;100509.66;;;1.22
77331;BMP280;66405;48.328;7.820;2023-02-28T05:42:33;100505.81;;;1.20
77331;BMP280;66405;48.328;7.820;2023-02-28T05:44:58;100502.41;;;1.19
77331;BMP280;66405;48.328;7.820;2023-02-28T05:47:33;100495.13;;;1.16
77331;BMP280;66405;48.328;7.820;2023-02-28T05:49:59;100501.16;;;1.13
77331;BMP280;66405;48.328;7.820;2023-02-28T05:52:25;100504.19;;;1.12
77331;BMP280;66405;48.328;7.820;2023-02-28T05:54:50;100507.53;;;1.08
77331;BMP280;66405;48.328;7.820;2023-02-28T05:57:16;100511.00;;;1.09
77331;BMP280;66405;48.328;7.820;2023-02-28T05:59:41;100515.53;;;1.08
77331;BMP280;66405;48.328;7.820;2023-02-28T06:02:16;100516.66;;;1.07
77331;BMP280;66405;48.328;7.820;2023-02-28T06:04:43;100518.19;;;1.08
77331;BMP280;66405;48.328;7.820;2023-02-28T06:07:10;100518.94;;;1.05
77331;BMP280;66405;48.328;7.820;2023-02-28T06:09:36;100526.91;;;1.05
77331;BMP280;66405;48.328;7.820;2023-02-28T06:12:04;100525.38;;;1.04
77331;BMP280;66405;48.328;7.820;2023-02-28T06:14:31;100531.88;;;1.07
77331;BMP280;66405;48.328;7.820;2023-02-28T06:16:58;100531.88;;;1.07
77331;BMP280;66405;48.328;7.820;2023-02-28T06:19:24;100527.31;;;1.07
77331;BMP280;66405;48.328;7.820;2023-02-28T06:21:52;100523.88;;;1.07
77331;BMP280;66405;48.328;7.820;2023-02-28T06:24:21;100525.41;;;1.08
77331;BMP280;66405;48.328;7.820;2023-02-28T06:26:48;100531.50;;;1.08
77331;BMP280;66405;48.328;7.820;2023-02-28T06:29:14;100529.97;;;1.07
77331;BMP280;66405;48.328;7.820;2023-02-28T06:31:43;100540.63;;;1.07
77331;BMP280;66405;48.328;7.820;2023-02-28T06:34:14;100539.84;;;1.07
77331;BMP280;66405;48.328;7.820;2023-02-28T06:36:41;100543.63;;;1.06
77331;BMP280;66405;48.328;7.820;2023-02-28T06:39:07;100553.91;;;1.07
77331;BMP280;66405;48.328;7.820;2023-02-28T06:41:33;100550.94;;;1.09
77331;BMP280;66405;48.328;7.820;2023-02-28T06:44:12;100552.84;;;1.12
77331;BMP280;66405;48.328;7.820;2023-02-28T06:46:39;100565.03;;;1.13
77331;BMP280;66405;48.328;7.820;2023-02-28T06:49:06;100563.16;;;1.14
77331;BMP280;66405;48.328;7.820;2023-02-28T06:51:40;100556.34;;;1.16
77331;BMP280;66405;48.328;7.820;2023-02-28T06:54:07;100568.53;;;1.17
77331;BMP280;66405;48.328;7.820;2023-02-28T06:56:35;100560.59;;;1.21
77331;BMP280;66405;48.328;7.820;2023-02-28T06:59:01;100561.72;;;1.20
77331;BMP280;66405;48.328;7.820;2023-02-28T07:01:26;100564.44;;;1.23
77331;BMP280;66405;48.328;7.820;2023-02-28T07:03:54;100558.41;;;1.27
77331;BMP280;66405;48.328;7.820;2023-02-28T07:06:20;100556.91;;;1.29
77331;BMP280;66405;48.328;7.820;2023-02-28T07:08:48;100568.75;;;1.32
77331;BMP280;66405;48.328;7.820;2023-02-28T07:11:14;100570.72;;;1.35
77331;BMP280;66405;48.328;7.820;2023-02-28T07:13:39;100568.06;;;1.38
77331;BMP280;66405;48.328;7.820;2023-02-28T07:16:07;100571.94;;;1.45
77331;BMP280;66405;48.328;7.820;2023-02-28T07:18:35;100573.91;;;1.48
77331;BMP280;66405;48.328;7.820;2023-02-28T07:21:05;100575.50;;;1.52
77331;BMP280;66405;48.328;7.820;2023-02-28T07:23:31;100577.44;;;1.55
77331;BMP280;66405;48.328;7.820;2023-02-28T07:25:57;100579.75;;;1.57
77331;BMP280;66405;48.328;7.820;2023-02-28T07:28:23;100578.63;;;1.58
77331;BMP280;66405;48.328;7.820;2023-02-28T07:30:49;100577.19;;;1.64
77331;BMP280;66405;48.328;7.820;2023-02-28T07:33:14;100582.22;;;1.69
77331;BMP280;66405;48.328;7.820;2023-02-28T07:35:40;100570.47;;;1.74
77331;BMP280;66405;48.328;7.820;2023-02-28T07:38:06;100580.84;;;1.83
77331;BMP280;66405;48.328;7.820;2023-02-28T07:40:35;100574.94;;;1.97
77331;BMP280;66405;48.328;7.820;2023-02-28T07:43:01;100579.31;;;2.12
77331;BMP280;66405;48.328;7.820;2023-02-28T07:45:29;100582.53;;;2.29
77331;BMP280;66405;48.328;7.820;2023-02-28T07:47:57;100579.63;;;2.45
77331;BMP280;66405;48.328;7.820;2023-02-28T07:50:22;100579.84;;;2.63
77331;BMP280;66405;48.328;7.820;2023-02-28T07:52:48;100573.44;;;2.75
77331;BMP280;66405;48.328;7.820;2023-02-28T07:55:13;100578.81;;;2.82
77331;BMP280;66405;48.328;7.820;2023-02-28T07:57:40;100578.16;;;2.92
77331;BMP280;66405;48.328;7.820;2023-02-28T08:00:07;100581.63;;;2.96
77331;BMP280;66405;48.328;7.820;2023-02-28T08:02:39;100580.94;;;3.07
77331;BMP280;66405;48.328;7.820;2023-02-28T08:05:05;100585.59;;;3.17
77331;BMP280;66405;48.328;7.820;2023-02-28T08:07:31;100583.31;;;3.23
77331;BMP280;66405;48.328;7.820;2023-02-28T08:10:05;100590.59;;;3.22
77331;BMP280;66405;48.328;7.820;2023-02-28T08:12:31;100595.16;;;3.22
77331;BMP280;66405;48.328;7.820;2023-02-28T08:14:56;100590.59;;;3.26
77331;BMP280;66405;48.328;7.820;2023-02-28T08:17:22;100595.97;;;3.33
77331;BMP280;66405;48.328;7.820;2023-02-28T08:19:47;100597.50;;;3.34
77331;BMP280;66405;48.328;7.820;2023-02-28T08:22:13;100592.16;;;3.34
77331;BMP280;66405;48.328;7.820;2023-02-28T08:24:41;100600.19;;;3.38
77331;BMP280;66405;48.328;7.820;2023-02-28T08:27:08;100602.53;;;3.43
77331;BMP280;66405;48.328;7.820;2023-02-28T08:29:33;100606.41;;;3.49
77331;BMP280;66405;48.328;7.820;2023-02-28T08:31:59;100614.09;;;3.54
77331;BMP280;66405;48.328;7.820;2023-02-28T08:34:24;100603.72;;;3.56
77331;BMP280;66405;48.328;7.820;2023-02-28T08:36:49;100608.75;;;3.54
77331;BMP280;66405;48.328;7.820;2023-02-28T08:39:15;100610.22;;;3.52
77331;BMP280;66405;48.328;7.820;2023-02-28T08:41:42;100603.69;;;3.45
77331;BMP280;66405;48.328;7.820;2023-02-28T08:44:07;100605.22;;;3.43
77331;BMP280;66405;48.328;7.820;2023-02-28T08:46:33;100598.31;;;3.38
77331;BMP280;66405;48.328;7.820;2023-02-28T08:48:58;100602.13;;;3.37
77331;BMP280;66405;48.328;7.820;2023-02-28T08:51:27;100608.59;;;3.36
77331;BMP280;66405;48.328;7.820;2023-02-28T08:53:54;100610.53;;;3.39
77331;BMP280;66405;48.328;7.820;2023-02-28T08:56:21;100610.19;;;3.44
77331;BMP280;66405;48.328;7.820;2023-02-28T08:58:47;100609.81;;;3.46
77331;BMP280;66405;48.328;7.820;2023-02-28T09:01:25;100613.66;;;3.49
77331;BMP280;66405;48.328;7.820;2023-02-28T09:03:55;100612.53;;;3.53
77331;BMP280;66405;48.328;7.820;2023-02-28T09:06:25;100613.69;;;3.59
77331;BMP280;66405;48.328;7.820;2023-02-28T09:08:52;100615.25;;;3.64
77331;BMP280;66405;48.328;7.820;2023-02-28T09:11:18;100607.25;;;3.68
77331;BMP280;66405;48.328;7.820;2023-02-28T09:13:44;100607.25;;;3.71
77331;BMP280;66405;48.328;7.820;2023-02-28T09:16:12;100623.72;;;3.77
77331;BMP280;66405;48.328;7.820;2023-02-28T09:18:38;100614.22;;;3.79
77331;BMP280;66405;48.328;7.820;2023-02-28T09:21:09;100608.84;;;3.83
77331;BMP280;66405;48.328;7.820;2023-02-28T09:23:35;100614.25;;;3.94
77331;BMP280;66405;48.328;7.820;2023-02-28T09:26:06;100616.94;;;3.98
77331;BMP280;66405;48.328;7.820;2023-02-28T09:28:31;100612.75;;;4.00
77331;BMP280;66405;48.328;7.820;2023-02-28T09:30:57;100611.59;;;4.01
77331;BMP280;66405;48.328;7.820;2023-02-28T09:33:24;100617.72;;;4.09
77331;BMP280;66405;48.328;7.820;2023-02-28T09:35:50;100616.22;;;4.11
77331;BMP280;66405;48.328;7.820;2023-02-28T09:38:17;100622.69;;;4.10
77331;BMP280;66405;48.328;7.820;2023-02-28T09:40:50;100620.81;;;4.11
77331;BMP280;66405;48.328;7.820;2023-02-28T09:43:17;100624.25;;;4.11
77331;BMP280;66405;48.328;7.820;2023-02-28T09:45:50;100624.25;;;4.15
77331;BMP280;66405;48.328;7.820;2023-02-28T09:48:22;100624.25;;;4.15
77331;BMP280;66405;48.328;7.820;2023-02-28T09:50:55;100620.03;;;4.14
77331;BMP280;66405;48.328;7.820;2023-02-28T09:53:32;100625.03;;;4.19
77331;BMP280;66405;48.328;7.820;2023-02-28T09:56:19;100631.16;;;4.27
77331;BMP280;66405;48.328;7.820;2023-02-28T10:07:54;100633.88;;;4.45
77331;BMP280;66405;48.328;7.820;2023-02-28T10:10:43;100635.81;;;4.48
77331;BMP280;66405;48.328;7.820;2023-02-28T10:16:17;100625.09;;;4.55
77331;BMP280;66405;48.328;7.820;2023-02-28T10:21:19;100632.38;;;4.69
77331;BMP280;66405;48.328;7.820;2023-02-28T10:23:46;100632.03;;;4.74
77331;BMP280;66405;48.328;7.820;2023-02-28T10:26:16;100635.47;;;4.75
77331;BMP280;66405;48.328;7.820;2023-02-28T10:28:42;100638.91;;;4.83
77331;BMP280;66405;48.328;7.820;2023-02-28T10:31:16;100634.31;;;4.87
77331;BMP280;66405;48.328;7.820;2023-02-28T10:33:44;100638.16;;;4.89
77331;BMP280;66405;48.328;7.820;2023-02-28T10:36:18;100636.22;;;4.94
77331;BMP280;66405;48.328;7.820;2023-02-28T10:38:47;100641.59;;;5.01
77331;BMP280;66405;48.328;7.820;2023-02-28T10:41:28;100640.81;;;5.07
77331;BMP280;66405;48.328;7.820;2023-02-28T10:44:22;100633.16;;;5.10
77331;BMP280;66405;48.328;7.820;2023-02-28T10:46:49;100643.88;;;5.10
77331;BMP280;66405;48.328;7.820;2023-02-28T10:51:44;100635.06;;;5.20
77331;BMP280;66405;48.328;7.820;2023-02-28T10:54:24;100635.44;;;5.29
77331;BMP280;66405;48.328;7.820;2023-02-28T10:57:09;100641.94;;;5.28
77331;BMP280;66405;48.328;7.820;2023-02-28T10:59:39;100647.31;;;5.32
77331;BMP280;66405;48.328;7.820;2023-02-28T11:02:32;100648.44;;;5.38
77331;BMP280;66405;48.328;7.820;2023-02-28T11:05:02;100646.13;;;5.47
77331;BMP280;66405;48.328;7.820;2023-02-28T11:07:27;100640.00;;;5.47
77331;BMP280;66405;48.328;7.820;2023-02-28T11:09:57;100640.78;;;5.47
77331;BMP280;66405;48.328;7.820;2023-02-28T11:12:25;100648.03;;;5.47
77331;BMP280;66405;48.328;7.820;2023-02-28T11:15:06;100648.06;;;5.39
77331;BMP280;66405;48.328;7.820;2023-02-28T11:17:32;100654.94;;;5.44
77331;BMP280;66405;48.328;7.820;2023-02-28T11:20:06;100654.19;;;5.47
77331;BMP280;66405;48.328;7.820;2023-02-28T11:22:39;100643.03;;;5.52
77331;BMP280;66405;48.328;7.820;2023-02-28T11:27:50;100637.66;;;5.67
77331;BMP280;66405;48.328;7.820;2023-02-28T11:32:59;100644.50;;;5.79
77331;BMP280;66405;48.328;7.820;2023-02-28T11:35:38;100641.75;;;5.89
77331;BMP280;66405;48.328;7.820;2023-02-28T11:38:11;100642.53;;;5.94
77331;BMP280;66405;48.328;7.820;2023-02-28T11:46:15;100632.09;;;6.07
77331;BMP280;66405;48.328;7.820;2023-02-28T11:51:34;100633.56;;;6.18
77331;BMP280;66405;48.328;7.820;2023-02-28T11:56:44;100638.56;;;6.24
77331;BMP280;66405;48.328;7.820;2023-02-28T12:02:20;100642.25;;;6.41
77331;BMP280;66405;48.328;7.820;2023-02-28T12:08:07;100639.50;;;6.55
77331;BMP280;66405;48.328;7.820;2023-02-28T12:10:44;100635.69;;;6.52
77331;BMP280;66405;48.328;7.820;2023-02-28T12:26:57;100614.19;;;6.98
77331;BMP280;66405;48.328;7.820;2023-02-28T12:34:55;100614.66;;;7.27
77331;BMP280;66405;48.328;7.820;2023-02-28T12:37:27;100614.16;;;7.36
77331;BMP280;66405;48.328;7.820;2023-02-28T12:40:01;100607.22;;;7.39
77331;BMP280;66405;48.328;7.820;2023-02-28T12:42:35;100610.97;;;7.48
77331;BMP280;66405;48.328;7.820;2023-02-28T12:45:07;100609.78;;;7.53
77331;BMP280;66405;48.328;7.820;2023-02-28T12:47:35;100604.44;;;7.49
77331;BMP280;66405;48.328;7.820;2023-02-28T12:52:58;100605.59;;;7.45
77331;BMP280;66405;48.328;7.820;2023-02-28T12:55:45;100606.50;;;7.34
77331;BMP280;66405;48.328;7.820;2023-02-28T13:09:32;100598.88;;;7.29
77331;BMP280;66405;48.328;7.820;2023-02-28T13:11:59;100600.78;;;7.32
77331;BMP280;66405;48.328;7.820;2023-02-28T13:17:09;100601.22;;;7.58
77331;BMP280;66405;48.328;7.820;2023-02-28T13:22:05;100603.09;;;7.92
77331;BMP280;66405;48.328;7.820;2023-02-28T13:24:45;100605.47;;;8.14
77331;BMP280;66405;48.328;7.820;2023-02-28T13:29:42;100604.84;;;8.30
77331;BMP280;66405;48.328;7.820;2023-02-28T13:34:41;100606.94;;;8.46
77331;BMP280;66405;48.328;7.820;2023-02-28T13:39:46;100606.81;;;8.77
77331;BMP280;66405;48.328;7.820;2023-02-28T13:42:36;100610.31;;;8.94
77331;BMP280;66405;48.328;7.820;2023-02-28T13:58:25;100611.31;;;17.74
77331;BMP280;66405;48.328;7.820;2023-02-28T14:06:35;100594.44;;;21.58
77331;BMP280;66405;48.328;7.820;2023-02-28T14:11:39;100589.97;;;23.66
77331;BMP280;66405;48.328;7.820;2023-02-28T14:14:07;100583.84;;;24.59
77331;BMP280;66405;48.328;7.820;2023-02-28T14:16:39;100593.78;;;25.23
77331;BMP280;66405;48.328;7.820;2023-02-28T14:32:45;100597.88;;;24.74
77331;BMP280;66405;48.328;7.820;2023-02-28T14:37:44;100589.59;;;25.09
77331;BMP280;66405;48.328;7.820;2023-02-28T14:40:17;100593.59;;;24.73
77331;BMP280;66405;48.328;7.820;2023-02-28T14:43:04;100602.22;;;24.56
77331;BMP280;66405;48.328;7.820;2023-02-28T14:45:32;100601.97;;;24.01
77331;BMP280;66405;48.328;7.820;2023-02-28T14:48:02;100606.19;;;23.18
77331;BMP280;66405;48.328;7.820;2023-02-28T14:50:36;100600.28;;;21.85
77331;BMP280;66405;48.328;7.820;2023-02-28T14:53:03;100593.28;;;20.67
77331;BMP280;66405;48.328;7.820;2023-02-28T14:55:34;100598.22;;;19.72
77331;BMP280;66405;48.328;7.820;2023-02-28T14:58:03;100602.63;;;19.47
77331;BMP280;66405;48.328;7.820;2023-02-28T15:00:37;100600.78;;;19.15
77331;BMP280;66405;48.328;7.820;2023-02-28T15:06:03;100596.25;;;19.78
77331;BMP280;66405;48.328;7.820;2023-02-28T15:08:31;100595.78;;;20.02
77331;BMP280;66405;48.328;7.820;2023-02-28T15:13:46;100602.19;;;20.95
77331;BMP280;66405;48.328;7.820;2023-02-28T15:16:25;100593.34;;;21.25
77331;BMP280;66405;48.328;7.820;2023-02-28T15:18:57;100594.22;;;21.50
77331;BMP280;66405;48.328;7.820;2023-02-28T15:21:30;100587.69;;;21.95
77331;BMP280;66405;48.328;7.820;2023-02-28T15:24:20;100590.34;;;22.37
77331;BMP280;66405;48.328;7.820;2023-02-28T15:26:54;100594.38;;;22.55
77331;BMP280;66405;48.328;7.820;2023-02-28T15:29:22;100582.75;;;22.68
77331;BMP280;66405;48.328;7.820;2023-02-28T15:31:52;100589.47;;;22.72
77331;BMP280;66405;48.328;7.820;2023-02-28T15:34:42;100584.28;;;22.88
77331;BMP280;66405;48.328;7.820;2023-02-28T15:39:52;100589.31;;;22.40
77331;BMP280;66405;48.328;7.820;2023-02-28T15:42:20;100583.22;;;22.47
77331;BMP280;66405;48.328;7.820;2023-02-28T15:44:47;100580.91;;;22.76
77331;BMP280;66405;48.328;7.820;2023-02-28T15:47:22;100597.97;;;23.12
77331;BMP280;66405;48.328;7.820;2023-02-28T15:49:53;100595.38;;;23.39
77331;BMP280;66405;48.328;7.820;2023-02-28T15:52:42;100584.56;;;23.60
77331;BMP280;66405;48.328;7.820;2023-02-28T15:55:27;100585.41;;;23.87
77331;BMP280;66405;48.328;7.820;2023-02-28T15:57:56;100593.38;;;23.91
77331;BMP280;66405;48.328;7.820;2023-02-28T16:00:28;100597.16;;;23.36
77331;BMP280;66405;48.328;7.820;2023-02-28T16:02:56;100593.78;;;22.87
77331;BMP280;66405;48.328;7.820;2023-02-28T16:05:28;100594.47;;;22.19
77331;BMP280;66405;48.328;7.820;2023-02-28T16:08:00;100597.47;;;21.49
77331;BMP280;66405;48.328;7.820;2023-02-28T16:10:27;100594.25;;;20.69
77331;BMP280;66405;48.328;7.820;2023-02-28T16:12:56;100593.03;;;19.91
77331;BMP280;66405;48.328;7.820;2023-02-28T16:15:27;100593.94;;;19.60
77331;BMP280;66405;48.328;7.820;2023-02-28T16:17:55;100599.41;;;19.48
77331;BMP280;66405;48.328;7.820;2023-02-28T16:20:27;100599.63;;;18.90
77331;BMP280;66405;48.328;7.820;2023-02-28T16:22:54;100597.28;;;18.14
77331;BMP280;66405;48.328;7.820;2023-02-28T16:25:23;100595.97;;;17.62
77331;BMP280;66405;48.328;7.820;2023-02-28T16:27:52;100595.31;;;17.26
77331;BMP280;66405;48.328;7.820;2023-02-28T16:30:24;100604.22;;;16.91
77331;BMP280;66405;48.328;7.820;2023-02-28T16:32:51;100590.13;;;16.18
77331;BMP280;66405;48.328;7.820;2023-02-28T16:35:18;100589.94;;;15.34
77331;BMP280;66405;48.328;7.820;2023-02-28T16:37:44;100597.75;;;14.47
77331;BMP280;66405;48.328;7.820;2023-02-28T16:40:15;100592.13;;;13.67
77331;BMP280;66405;48.328;7.820;2023-02-28T16:42:45;100602.41;;;13.00
77331;BMP280;66405;48.328;7.820;2023-02-28T16:45:16;100605.59;;;12.41
77331;BMP280;66405;48.328;7.820;2023-02-28T16:47:44;100607.47;;;11.83
77331;BMP280;66405;48.328;7.820;2023-02-28T16:50:36;100604.22;;;11.24
77331;BMP280;66405;48.328;7.820;2023-02-28T16:53:02;100600.94;;;10.74
77331;BMP280;66405;48.328;7.820;2023-02-28T16:55:28;100606.00;;;10.26
77331;BMP280;66405;48.328;7.820;2023-02-28T16:57:59;100608.91;;;9.82
77331;BMP280;66405;48.328;7.820;2023-02-28T17:00:26;100613.50;;;9.49
77331;BMP280;66405;48.328;7.820;2023-02-28T17:02:52;100611.47;;;9.16
77331;BMP280;66405;48.328;7.820;2023-02-28T17:05:18;100609.38;;;8.84
77331;BMP280;66405;48.328;7.820;2023-02-28T17:07:47;100608.69;;;8.56
77331;BMP280;66405;48.328;7.820;2023-02-28T17:10:22;100616.41;;;8.30
77331;BMP280;66405;48.328;7.820;2023-02-28T17:12:48;100609.44;;;8.06